sensor_id;sensor_type;location;lat;lon;timestamp;pressure;altitude;pressure_sealevel;temperature;humidity
22440;BME280;11387;51.612;7.210;2023-07-31T00:00:16;100221.75;;;14.32;100.00
22440;BME280;11387;51.612;7.210;2023-07-31T00:02:45;100226.59;;;14.35;100.00
22440;BME280;11387;51.612;7.210;2023-07-31T00:05:15;100219.13;;;14.35;100.00
22440;BME280;11387;51.612;7.210;2023-07-31T00:07:44;100212.59;;;14.40;100.00
22440;BME280;11387;51.612;7.210;2023-07-31T00:10:12;100212.59;;;14.40;100.00
22440;BME280;11387;51.612;7.210;2023-07-31T00:12:44;100211.16;;;14.42;100.00
22440;BME280;11387;51.612;7.210;2023-07-31T00:15:13;100213.72;;;14.47;100.00
22440;BME280;11387;51.612;7.210;2023-07-31T00:17:43;100203.66;;;14.52;100.00
22440;BME280;11387;51.612;7.210;2023-07-31T00:20:12;100203.00;;;14.55;100.00
22440;BME280;11387;51.612;7.210;2023-07-31T00:22:41;100199.75;;;14.53;100.00
22440;BME280;11387;51.612;7.210;2023-07-31T00:25:09;100197.88;;;14.44;100.00
22440;BME280;11387;51.612;7.210;2023-07-31T00:27:38;100191.38;;;14.40;100.00
22440;BME280;11387;51.612;7.210;2023-07-31T00:30:12;100191.22;;;14.45;100.00
22440;BME280;11387;51.612;7.210;2023-07-31T00:32:40;100187.66;;;14.45;100.00
22440;BME280;11387;51.612;7.210;2023-07-31T00:35:10;100194.13;;;14.49;100.00
22440;BME280;11387;51.612;7.210;2023-07-31T00:37:39;100188.75;;;14.53;100.00
22440;BME280;11387;51.612;7.210;2023-07-31T00:40:08;100190.22;;;14.50;100.00
22440;BME280;11387;51.612;7.210;2023-07-31T00:42:37;100184.19;;;14.57;100.00
22440;BME280;11387;51.612;7.210;2023-07-31T00:45:06;100174.38;;;14.68;100.00
22440;BME280;11387;51.612;7.210;2023-07-31T00:47:35;100180.34;;;14.70;100.00
22440;BME280;11387;51.612;7.210;2023-07-31T00:50:05;100181.22;;;14.82;100.00
22440;BME280;11387;51.612;7.210;2023-07-31T00:52:35;100180.00;;;14.92;100.00
22440;BME280;11387;51.612;7.210;2023-07-31T00:55:06;100175.31;;;14.93;100.00
22440;BME280;11387;51.612;7.210;2023-07-31T00:57:36;100167.28;;;15.00;100.00
22440;BME280;11387;51.612;7.210;2023-07-31T01:00:07;100174.06;;;15.02;100.00
22440;BME280;11387;51.612;7.210;2023-07-31T01:02:37;100171.44;;;15.06;100.00
22440;BME280;11387;51.612;7.210;2023-07-31T01:05:07;100171.34;;;15.14;100.00
22440;BME280;11387;51.612;7.210;2023-07-31T01:07:41;100173.63;;;15.12;100.00
22440;BME280;11387;51.612;7.210;2023-07-31T01:10:16;100168.47;;;15.11;100.00
22440;BME280;11387;51.612;7.210;2023-07-31T01:12:47;100172.81;;;15.12;100.00
22440;BME280;11387;51.612;7.210;2023-07-31T01:15:17;100177.78;;;15.19;100.00
22440;BME280;11387;51.612;7.210;2023-07-31T01:17:46;100166.97;;;15.13;100.00
22440;BME280;11387;51.612;7.210;2023-07-31T01:20:18;100160.78;;;15.16;100.00
22440;BME280;11387;51.612;7.210;2023-07-31T01:23:08;100164.34;;;15.17;100.00
22440;BME280;11387;51.612;7.210;2023-07-31T01:25:56;100165.84;;;15.14;100.00
22440;BME280;11387;51.612;7.210;2023-07-31T01:28:34;100170.53;;;15.14;100.00
22440;BME280;11387;51.612;7.210;2023-07-31T01:31:10;100167.44;;;15.15;100.00
22440;BME280;11387;51.612;7.210;2023-07-31T01:33:40;100176.84;;;15.14;100.00
22440;BME280;11387;51.612;7.210;2023-07-31T01:36:10;100172.50;;;15.13;100.00
22440;BME280;11387;51.612;7.210;2023-07-31T01:38:47;100160.06;;;15.07;100.00
22440;BME280;11387;51.612;7.210;2023-07-31T01:41:18;100147.22;;;15.11;100.00
22440;BME280;11387;51.612;7.210;2023-07-31T01:43:46;100160.88;;;15.08;100.00
22440;BME280;11387;51.612;7.210;2023-07-31T01:46:15;100156.03;;;15.05;100.00
22440;BME280;11387;51.612;7.210;2023-07-31T01:48:44;100153.41;;;15.08;100.00
22440;BME280;11387;51.612;7.210;2023-07-31T01:51:13;100146.75;;;15.09;100.00
22440;BME280;11387;51.612;7.210;2023-07-31T01:53:41;100155.50;;;15.11;100.00
22440;BME280;11387;51.612;7.210;2023-07-31T01:56:10;100153.41;;;15.08;100.00
22440;BME280;11387;51.612;7.210;2023-07-31T01:58:42;100155.38;;;15.08;100.00
22440;BME280;11387;51.612;7.210;2023-07-31T02:01:10;100153.75;;;15.07;100.00
22440;BME280;11387;51.612;7.210;2023-07-31T02:03:39;100155.03;;;15.09;100.00
22440;BME280;11387;51.612;7.210;2023-07-31T02:06:09;100152.47;;;15.04;100.00
22440;BME280;11387;51.612;7.210;2023-07-31T02:08:38;100155.50;;;15.11;100.00
22440;BME280;11387;51.612;7.210;2023-07-31T02:11:07;100150.66;;;15.08;100.00
22440;BME280;11387;51.612;7.210;2023-07-31T02:13:35;100150.88;;;15.03;100.00
22440;BME280;11387;51.612;7.210;2023-07-31T02:16:05;100155.09;;;15.01;100.00
22440;BME280;11387;51.612;7.210;2023-07-31T02:18:34;100152.00;;;15.02;100.00
22440;BME280;11387;51.612;7.210;2023-07-31T02:21:03;100155.81;;;14.98;100.00
22440;BME280;11387;51.612;7.210;2023-07-31T02:23:31;100153.25;;;14.93;100.00
22440;BME280;11387;51.612;7.210;2023-07-31T02:26:00;100145.34;;;14.91;100.00
22440;BME280;11387;51.612;7.210;2023-07-31T02:28:29;100147.63;;;14.89;100.00
22440;BME280;11387;51.612;7.210;2023-07-31T02:30:58;100145.34;;;14.91;100.00
22440;BME280;11387;51.612;7.210;2023-07-31T02:33:28;100142.44;;;14.88;100.00
22440;BME280;11387;51.612;7.210;2023-07-31T02:35:57;100137.28;;;14.86;100.00
22440;BME280;11387;51.612;7.210;2023-07-31T02:38:26;100132.72;;;14.90;100.00
22440;BME280;11387;51.612;7.210;2023-07-31T02:40:54;100132.13;;;14.85;100.00
22440;BME280;11387;51.612;7.210;2023-07-31T02:43:23;100143.47;;;14.83;100.00
22440;BME280;11387;51.612;7.210;2023-07-31T02:45:52;100131.03;;;14.77;100.00
22440;BME280;11387;51.612;7.210;2023-07-31T02:48:21;100135.53;;;14.81;100.00
22440;BME280;11387;51.612;7.210;2023-07-31T02:50:50;100135.88;;;14.80;100.00
22440;BME280;11387;51.612;7.210;2023-07-31T02:53:19;100136.13;;;14.87;100.00
22440;BME280;11387;51.612;7.210;2023-07-31T02:55:48;100123.03;;;14.84;100.00
22440;BME280;11387;51.612;7.210;2023-07-31T02:58:16;100135.19;;;14.83;100.00
22440;BME280;11387;51.612;7.210;2023-07-31T03:00:45;100127.88;;;14.87;100.00
22440;BME280;11387;51.612;7.210;2023-07-31T03:03:14;100126.94;;;14.83;100.00
22440;BME280;11387;51.612;7.210;2023-07-31T03:05:43;100126.94;;;14.83;100.00
22440;BME280;11387;51.612;7.210;2023-07-31T03:08:13;100125.31;;;14.82;100.00
22440;BME280;11387;51.612;7.210;2023-07-31T03:10:41;100118.47;;;14.88;100.00
22440;BME280;11387;51.612;7.210;2023-07-31T03:13:30;100117.28;;;14.77;100.00
22440;BME280;11387;51.612;7.210;2023-07-31T03:15:58;100116.47;;;14.76;100.00
22440;BME280;11387;51.612;7.210;2023-07-31T03:18:27;100115.94;;;14.83;100.00
22440;BME280;11387;51.612;7.210;2023-07-31T03:20:56;100111.91;;;14.80;100.00
22440;BME280;11387;51.612;7.210;2023-07-31T03:23:26;100110.06;;;14.85;100.00
22440;BME280;11387;51.612;7.210;2023-07-31T03:25:58;100117.75;;;14.79;100.00
22440;BME280;11387;51.612;7.210;2023-07-31T03:28:27;100125.66;;;14.80;100.00
22440;BME280;11387;51.612;7.210;2023-07-31T03:30:55;100128.88;;;14.82;100.00
22440;BME280;11387;51.612;7.210;2023-07-31T03:33:24;100125.78;;;14.84;100.00
22440;BME280;11387;51.612;7.210;2023-07-31T03:35:53;100122.38;;;14.87;100.00
22440;BME280;11387;51.612;7.210;2023-07-31T03:38:21;100138.91;;;14.87;100.00
22440;BME280;11387;51.612;7.210;2023-07-31T03:40:51;100126.66;;;14.97;100.00
22440;BME280;11387;51.612;7.210;2023-07-31T03:43:20;100127.00;;;14.95;100.00
22440;BME280;11387;51.612;7.210;2023-07-31T03:45:49;100119.88;;;14.94;100.00
22440;BME280;11387;51.612;7.210;2023-07-31T03:48:17;100126.75;;;15.00;100.00
22440;BME280;11387;51.612;7.210;2023-07-31T03:50:46;100119.75;;;15.03;100.00
22440;BME280;11387;51.612;7.210;2023-07-31T03:53:14;100111.28;;;15.08;100.00
22440;BME280;11387;51.612;7.210;2023-07-31T03:55:43;100111.16;;;15.04;100.00
22440;BME280;11387;51.612;7.210;2023-07-31T03:58:13;100107.38;;;15.09;100.00
22440;BME280;11387;51.612;7.210;2023-07-31T04:00:41;100120.34;;;15.08;100.00
22440;BME280;11387;51.612;7.210;2023-07-31T04:03:10;100106.16;;;15.19;100.00
22440;BME280;11387;51.612;7.210;2023-07-31T04:05:39;100116.50;;;15.22;100.00
22440;BME280;11387;51.612;7.210;2023-07-31T04:08:08;100110.97;;;15.22;100.00
22440;BME280;11387;51.612;7.210;2023-07-31T04:10:36;100109.50;;;15.24;100.00
22440;BME280;11387;51.612;7.210;2023-07-31T04:13:05;100115.00;;;15.24;100.00
22440;BME280;11387;51.612;7.210;2023-07-31T04:15:35;100106.47;;;15.29;100.00
22440;BME280;11387;51.612;7.210;2023-07-31T04:18:04;100109.63;;;15.28;100.00
22440;BME280;11387;51.612;7.210;2023-07-31T04:20:33;100108.91;;;15.31;100.00
22440;BME280;11387;51.612;7.210;2023-07-31T04:23:01;100118.69;;;15.40;100.00
22440;BME280;11387;51.612;7.210;2023-07-31T04:25:30;100108.47;;;15.41;100.00
22440;BME280;11387;51.612;7.210;2023-07-31T04:27:58;100098.25;;;15.41;100.00
22440;BME280;11387;51.612;7.210;2023-07-31T04:30:28;100092.59;;;15.38;100.00
22440;BME280;11387;51.612;7.210;2023-07-31T04:32:58;100094.47;;;15.46;100.00
22440;BME280;11387;51.612;7.210;2023-07-31T04:35:27;100096.31;;;15.54;100.00
22440;BME280;11387;51.612;7.210;2023-07-31T04:37:56;100089.88;;;15.50;100.00
22440;BME280;11387;51.612;7.210;2023-07-31T04:40:24;100088.72;;;15.63;100.00
22440;BME280;11387;51.612;7.210;2023-07-31T04:42:53;100087.81;;;15.71;100.00
22440;BME280;11387;51.612;7.210;2023-07-31T04:45:22;100094.03;;;15.80;100.00
22440;BME280;11387;51.612;7.210;2023-07-31T04:47:50;100094.03;;;15.80;100.00
22440;BME280;11387;51.612;7.210;2023-07-31T04:50:20;100098.25;;;15.90;100.00
22440;BME280;11387;51.612;7.210;2023-07-31T04:52:49;100091.94;;;15.90;100.00
22440;BME280;11387;51.612;7.210;2023-07-31T04:55:17;100094.25;;;15.88;100.00
22440;BME280;11387;51.612;7.210;2023-07-31T04:57:46;100086.50;;;15.93;100.00
22440;BME280;11387;51.612;7.210;2023-07-31T05:00:15;100087.47;;;15.85;100.00
22440;BME280;11387;51.612;7.210;2023-07-31T05:02:44;100092.63;;;15.87;100.00
22440;BME280;11387;51.612;7.210;2023-07-31T05:05:13;100077.78;;;15.91;100.00
22440;BME280;11387;51.612;7.210;2023-07-31T05:07:43;100085.63;;;15.89;100.00
22440;BME280;11387;51.612;7.210;2023-07-31T05:10:12;100081.09;;;15.97;100.00
22440;BME280;11387;51.612;7.210;2023-07-31T05:12:42;100079.31;;;15.89;100.00
22440;BME280;11387;51.612;7.210;2023-07-31T05:15:10;100081.00;;;15.93;100.00
22440;BME280;11387;51.612;7.210;2023-07-31T05:17:39;100088.00;;;15.91;100.00
22440;BME280;11387;51.612;7.210;2023-07-31T05:20:08;100075.59;;;15.97;100.00
22440;BME280;11387;51.612;7.210;2023-07-31T05:22:38;100073.41;;;16.02;100.00
22440;BME280;11387;51.612;7.210;2023-07-31T05:25:08;100077.41;;;16.05;100.00
22440;BME280;11387;51.612;7.210;2023-07-31T05:27:37;100063.63;;;16.05;100.00
22440;BME280;11387;51.612;7.210;2023-07-31T05:30:06;100067.69;;;16.23;100.00
22440;BME280;11387;51.612;7.210;2023-07-31T05:32:35;100064.47;;;16.21;100.00
22440;BME280;11387;51.612;7.210;2023-07-31T05:35:05;100064.06;;;16.19;100.00
22440;BME280;11387;51.612;7.210;2023-07-31T05:37:33;100060.84;;;16.17;100.00
22440;BME280;11387;51.612;7.210;2023-07-31T05:40:03;100057.13;;;16.25;100.00
22440;BME280;11387;51.612;7.210;2023-07-31T05:42:32;100055.31;;;16.17;100.00
22440;BME280;11387;51.612;7.210;2023-07-31T05:45:02;100051.88;;;16.20;100.00
22440;BME280;11387;51.612;7.210;2023-07-31T05:47:31;100055.66;;;16.15;100.00
22440;BME280;11387;51.612;7.210;2023-07-31T05:49:59;100056.50;;;15.92;100.00
22440;BME280;11387;51.612;7.210;2023-07-31T05:52:28;100043.47;;;15.76;100.00
22440;BME280;11387;51.612;7.210;2023-07-31T05:54:57;100059.66;;;15.66;100.00
22440;BME280;11387;51.612;7.210;2023-07-31T05:57:26;100046.91;;;15.61;100.00
22440;BME280;11387;51.612;7.210;2023-07-31T05:59:56;100036.94;;;15.57;100.00
22440;BME280;11387;51.612;7.210;2023-07-31T06:02:24;100035.41;;;15.47;100.00
22440;BME280;11387;51.612;7.210;2023-07-31T06:04:53;100031.28;;;15.41;100.00
22440;BME280;11387;51.612;7.210;2023-07-31T06:07:22;100024.50;;;15.38;100.00
22440;BME280;11387;51.612;7.210;2023-07-31T06:09:50;100026.91;;;15.40;100.00
22440;BME280;11387;51.612;7.210;2023-07-31T06:12:19;100034.50;;;15.43;100.00
22440;BME280;11387;51.612;7.210;2023-07-31T06:14:47;100034.38;;;15.39;100.00
22440;BME280;11387;51.612;7.210;2023-07-31T06:17:17;100029.78;;;15.43;100.00
22440;BME280;11387;51.612;7.210;2023-07-31T06:19:46;100022.66;;;15.42;100.00
22440;BME280;11387;51.612;7.210;2023-07-31T06:22:15;100015.44;;;15.38;100.00
22440;BME280;11387;51.612;7.210;2023-07-31T06:24:43;100014.97;;;15.36;100.00
22440;BME280;11387;51.612;7.210;2023-07-31T06:27:12;100013.81;;;15.37;100.00
22440;BME280;11387;51.612;7.210;2023-07-31T06:29:41;100022.53;;;15.39;100.00
22440;BME280;11387;51.612;7.210;2023-07-31T06:32:10;100026.44;;;15.38;100.00
22440;BME280;11387;51.612;7.210;2023-07-31T06:34:40;100023.47;;;15.43;100.00
22440;BME280;11387;51.612;7.210;2023-07-31T06:37:09;100024.72;;;15.45;100.00
22440;BME280;11387;51.612;7.210;2023-07-31T06:39:38;100019.56;;;15.44;100.00
22440;BME280;11387;51.612;7.210;2023-07-31T06:42:06;100027.03;;;15.43;100.00
22440;BME280;11387;51.612;7.210;2023-07-31T06:44:35;100017.97;;;15.43;100.00
22440;BME280;11387;51.612;7.210;2023-07-31T06:47:04;100025.06;;;15.44;100.00
22440;BME280;11387;51.612;7.210;2023-07-31T06:49:36;100008.78;;;15.51;100.00
22440;BME280;11387;51.612;7.210;2023-07-31T06:52:06;100008.06;;;15.54;100.00
22440;BME280;11387;51.612;7.210;2023-07-31T06:54:35;100015.66;;;15.45;100.00
22440;BME280;11387;51.612;7.210;2023-07-31T06:57:04;100011.19;;;15.53;100.00
22440;BME280;11387;51.612;7.210;2023-07-31T06:59:33;100009.22;;;15.53;100.00
22440;BME280;11387;51.612;7.210;2023-07-31T07:02:15;100014.53;;;15.58;100.00
22440;BME280;11387;51.612;7.210;2023-07-31T07:04:44;100017.72;;;15.60;100.00
22440;BME280;11387;51.612;7.210;2023-07-31T07:07:14;100011.63;;;15.55;100.00
22440;BME280;11387;51.612;7.210;2023-07-31T07:09:43;100016.69;;;15.53;100.00
22440;BME280;11387;51.612;7.210;2023-07-31T07:12:12;99998.06;;;15.62;100.00
22440;BME280;11387;51.612;7.210;2023-07-31T07:14:40;100008.31;;;15.61;100.00
22440;BME280;11387;51.612;7.210;2023-07-31T07:17:09;100008.53;;;15.68;100.00
22440;BME280;11387;51.612;7.210;2023-07-31T07:19:40;99992.91;;;15.72;100.00
22440;BME280;11387;51.612;7.210;2023-07-31T07:22:09;99996.00;;;15.71;100.00
22440;BME280;11387;51.612;7.210;2023-07-31T07:24:39;99989.91;;;15.77;100.00
22440;BME280;11387;51.612;7.210;2023-07-31T07:27:08;99999.56;;;15.71;100.00
22440;BME280;11387;51.612;7.210;2023-07-31T07:29:37;100002.22;;;15.68;100.00
22440;BME280;11387;51.612;7.210;2023-07-31T07:32:07;100002.78;;;15.73;100.00
22440;BME280;11387;51.612;7.210;2023-07-31T07:34:35;99992.09;;;15.72;100.00
22440;BME280;11387;51.612;7.210;2023-07-31T07:37:05;99997.50;;;15.68;100.00
22440;BME280;11387;51.612;7.210;2023-07-31T07:39:33;99994.97;;;15.63;100.00
22440;BME280;11387;51.612;7.210;2023-07-31T07:42:04;99992.19;;;15.75;100.00
22440;BME280;11387;51.612;7.210;2023-07-31T07:44:33;99990.72;;;15.66;100.00
22440;BME280;11387;51.612;7.210;2023-07-31T07:47:01;99989.91;;;15.65;100.00
22440;BME280;11387;51.612;7.210;2023-07-31T07:49:30;99990.25;;;15.64;100.00
22440;BME280;11387;51.612;7.210;2023-07-31T07:51:59;99998.88;;;15.62;100.00
22440;BME280;11387;51.612;7.210;2023-07-31T07:54:28;99995.44;;;15.65;100.00
22440;BME280;11387;51.612;7.210;2023-07-31T07:56:57;99998.88;;;15.62;100.00
22440;BME280;11387;51.612;7.210;2023-07-31T07:59:27;99995.66;;;15.60;100.00
22440;BME280;11387;51.612;7.210;2023-07-31T08:01:56;99988.31;;;15.64;100.00
22440;BME280;11387;51.612;7.210;2023-07-31T08:04:25;99989.56;;;15.67;100.00
22440;BME280;11387;51.612;7.210;2023-07-31T08:06:53;99992.31;;;15.67;100.00
22440;BME280;11387;51.612;7.210;2023-07-31T08:09:22;99980.81;;;15.77;100.00
22440;BME280;11387;51.612;7.210;2023-07-31T08:11:50;99979.78;;;15.81;100.00
22440;BME280;11387;51.612;7.210;2023-07-31T08:14:19;99980.00;;;15.89;100.00
22440;BME280;11387;51.612;7.210;2023-07-31T08:16:49;99975.97;;;15.86;100.00
22440;BME280;11387;51.612;7.210;2023-07-31T08:19:18;99972.88;;;15.88;100.00
22440;BME280;11387;51.612;7.210;2023-07-31T08:21:47;99974.72;;;15.83;100.00
22440;BME280;11387;51.612;7.210;2023-07-31T08:24:15;99963.00;;;15.74;100.00
22440;BME280;11387;51.612;7.210;2023-07-31T08:26:44;99968.28;;;15.79;100.00
22440;BME280;11387;51.612;7.210;2023-07-31T08:29:12;99968.53;;;15.74;100.00
22440;BME280;11387;51.612;7.210;2023-07-31T08:31:41;99954.28;;;15.72;100.00
22440;BME280;11387;51.612;7.210;2023-07-31T08:34:11;99964.84;;;15.82;100.00
22440;BME280;11387;51.612;7.210;2023-07-31T08:36:40;99972.22;;;15.66;100.00
22440;BME280;11387;51.612;7.210;2023-07-31T08:39:09;99973.34;;;15.77;100.00
22440;BME280;11387;51.612;7.210;2023-07-31T08:41:41;99969.22;;;15.71;100.00
22440;BME280;11387;51.612;7.210;2023-07-31T08:44:10;99962.56;;;15.72;100.00
22440;BME280;11387;51.612;7.210;2023-07-31T08:46:39;99962.34;;;15.65;100.00
22440;BME280;11387;51.612;7.210;2023-07-31T08:49:11;99966.25;;;15.64;100.00
22440;BME280;11387;51.612;7.210;2023-07-31T08:51:41;99961.69;;;15.56;100.00
22440;BME280;11387;51.612;7.210;2023-07-31T08:54:11;99970.16;;;15.51;100.00
22440;BME280;11387;51.612;7.210;2023-07-31T08:56:40;99962.69;;;15.52;100.00
22440;BME280;11387;51.612;7.210;2023-07-31T08:59:09;99966.16;;;15.48;100.00
22440;BME280;11387;51.612;7.210;2023-07-31T09:01:43;99966.97;;;15.49;100.00
22440;BME280;11387;51.612;7.210;2023-07-31T09:04:19;99959.94;;;15.52;100.00
22440;BME280;11387;51.612;7.210;2023-07-31T09:06:50;99965.25;;;15.57;100.00
22440;BME280;11387;51.612;7.210;2023-07-31T09:09:21;99960.06;;;15.55;100.00
22440;BME280;11387;51.612;7.210;2023-07-31T09:11:51;99951.31;;;15.53;100.00
22440;BME280;11387;51.612;7.210;2023-07-31T09:14:20;99978.66;;;15.46;100.00
22440;BME280;11387;51.612;7.210;2023-07-31T09:16:54;99970.84;;;15.60;100.00
22440;BME280;11387;51.612;7.210;2023-07-31T09:19:32;99967.41;;;15.63;100.00
22440;BME280;11387;51.612;7.210;2023-07-31T09:22:01;99969.63;;;15.58;100.00
22440;BME280;11387;51.612;7.210;2023-07-31T09:24:31;99963.31;;;15.57;100.00
22440;BME280;11387;51.612;7.210;2023-07-31T09:27:01;99958.25;;;15.59;100.00
22440;BME280;11387;51.612;7.210;2023-07-31T09:29:30;99957.63;;;15.66;100.00
22440;BME280;11387;51.612;7.210;2023-07-31T09:31:59;99955.84;;;15.58;100.00
22440;BME280;11387;51.612;7.210;2023-07-31T09:34:36;99961.56;;;15.53;100.00
22440;BME280;11387;51.612;7.210;2023-07-31T09:37:05;99944.47;;;15.59;100.00
22440;BME280;11387;51.612;7.210;2023-07-31T09:39:45;99952.81;;;15.63;100.00
22440;BME280;11387;51.612;7.210;2023-07-31T09:42:24;99958.66;;;15.61;100.00
22440;BME280;11387;51.612;7.210;2023-07-31T09:44:53;99947.75;;;15.65;100.00
22440;BME280;11387;51.612;7.210;2023-07-31T09:47:25;99952.34;;;15.73;100.00
22440;BME280;11387;51.612;7.210;2023-07-31T09:49:55;99947.84;;;15.80;100.00
22440;BME280;11387;51.612;7.210;2023-07-31T09:52:26;99949.19;;;15.87;100.00
22440;BME280;11387;51.612;7.210;2023-07-31T09:54:54;99946.63;;;15.94;100.00
22440;BME280;11387;51.612;7.210;2023-07-31T09:57:23;99939.03;;;15.91;100.00
22440;BME280;11387;51.612;7.210;2023-07-31T10:00:08;99932.94;;;15.97;100.00
22440;BME280;11387;51.612;7.210;2023-07-31T10:02:38;99932.31;;;16.04;100.00
22440;BME280;11387;51.612;7.210;2023-07-31T10:05:10;99936.00;;;16.08;100.00
22440;BME280;11387;51.612;7.210;2023-07-31T10:07:42;99926.16;;;15.95;100.00
22440;BME280;11387;51.612;7.210;2023-07-31T10:10:26;99928.16;;;16.10;100.00
22440;BME280;11387;51.612;7.210;2023-07-31T10:12:56;99932.56;;;15.99;100.00
22440;BME280;11387;51.612;7.210;2023-07-31T10:15:25;99934.50;;;16.10;100.00
22440;BME280;11387;51.612;7.210;2023-07-31T10:17:54;99927.81;;;16.11;100.00
22440;BME280;11387;51.612;7.210;2023-07-31T10:20:26;99935.34;;;15.99;100.00
22440;BME280;11387;51.612;7.210;2023-07-31T10:22:56;99931.63;;;16.07;100.00
22440;BME280;11387;51.612;7.210;2023-07-31T10:25:27;99933.00;;;16.13;100.00
22440;BME280;11387;51.612;7.210;2023-07-31T10:27:57;99931.56;;;16.19;100.00
22440;BME280;11387;51.612;7.210;2023-07-31T10:30:28;99932.63;;;16.14;100.00
22440;BME280;11387;51.612;7.210;2023-07-31T10:32:58;99929.19;;;16.33;100.00
22440;BME280;11387;51.612;7.210;2023-07-31T10:35:28;99935.31;;;16.27;100.00
22440;BME280;11387;51.612;7.210;2023-07-31T10:38:23;99931.00;;;16.41;100.00
22440;BME280;11387;51.612;7.210;2023-07-31T10:41:12;99918.41;;;16.28;100.00
22440;BME280;11387;51.612;7.210;2023-07-31T10:43:41;99933.81;;;16.29;100.00
22440;BME280;11387;51.612;7.210;2023-07-31T10:46:11;99920.25;;;16.24;100.00
22440;BME280;11387;51.612;7.210;2023-07-31T10:48:41;99924.63;;;16.25;100.00
22440;BME280;11387;51.612;7.210;2023-07-31T10:51:12;99931.63;;;16.07;100.00
22440;BME280;11387;51.612;7.210;2023-07-31T10:53:42;99924.06;;;16.04;100.00
22440;BME280;11387;51.612;7.210;2023-07-31T10:56:11;99932.56;;;15.99;100.00
22440;BME280;11387;51.612;7.210;2023-07-31T10:58:44;99915.78;;;16.04;100.00
22440;BME280;11387;51.612;7.210;2023-07-31T11:01:13;99923.16;;;16.00;100.00
22440;BME280;11387;51.612;7.210;2023-07-31T11:03:43;99922.00;;;16.01;100.00
22440;BME280;11387;51.612;7.210;2023-07-31T11:06:14;99925.22;;;16.03;100.00
22440;BME280;11387;51.612;7.210;2023-07-31T11:08:47;99913.47;;;16.06;100.00
22440;BME280;11387;51.612;7.210;2023-07-31T11:11:17;99925.09;;;15.99;100.00
22440;BME280;11387;51.612;7.210;2023-07-31T11:13:47;99918.09;;;16.02;100.00
22440;BME280;11387;51.612;7.210;2023-07-31T11:16:19;99926.56;;;16.09;100.00
22440;BME280;11387;51.612;7.210;2023-07-31T11:18:48;99926.31;;;16.14;100.00
22440;BME280;11387;51.612;7.210;2023-07-31T11:21:22;99926.06;;;16.19;100.00
22440;BME280;11387;51.612;7.210;2023-07-31T11:23:52;99928.81;;;16.19;100.00
22440;BME280;11387;51.612;7.210;2023-07-31T11:26:23;99926.47;;;16.21;100.00
22440;BME280;11387;51.612;7.210;2023-07-31T11:28:52;99929.00;;;16.26;100.00
22440;BME280;11387;51.612;7.210;2023-07-31T11:31:20;99922.06;;;16.32;100.00
22440;BME280;11387;51.612;7.210;2023-07-31T11:33:50;99915.63;;;16.28;100.00
22440;BME280;11387;51.612;7.210;2023-07-31T11:36:20;99927.59;;;16.32;100.00
22440;BME280;11387;51.612;7.210;2023-07-31T11:38:49;99908.25;;;16.32;100.00
22440;BME280;11387;51.612;7.210;2023-07-31T11:41:18;99908.91;;;16.41;100.00
22440;BME280;11387;51.612;7.210;2023-07-31T11:43:47;99918.09;;;16.45;100.00
22440;BME280;11387;51.612;7.210;2023-07-31T11:46:16;99905.97;;;16.50;100.00
22440;BME280;11387;51.612;7.210;2023-07-31T11:48:46;99910.94;;;16.44;100.00
22440;BME280;11387;51.612;7.210;2023-07-31T11:51:16;99914.59;;;16.48;100.00
22440;BME280;11387;51.612;7.210;2023-07-31T11:53:49;99909.44;;;16.47;100.00
22440;BME280;11387;51.612;7.210;2023-07-31T11:56:20;99903.56;;;16.48;100.00
22440;BME280;11387;51.612;7.210;2023-07-31T11:58:52;99900.34;;;16.62;100.00
22440;BME280;11387;51.612;7.210;2023-07-31T12:01:22;99906.78;;;16.82;100.00
22440;BME280;11387;51.612;7.210;2023-07-31T12:03:52;99893.56;;;16.91;100.00
22440;BME280;11387;51.612;7.210;2023-07-31T12:06:21;99907.66;;;16.86;100.00
22440;BME280;11387;51.612;7.210;2023-07-31T12:08:51;99899.81;;;16.88;100.00
22440;BME280;11387;51.612;7.210;2023-07-31T12:11:19;99900.78;;;16.96;100.00
22440;BME280;11387;51.612;7.210;2023-07-31T12:13:48;99896.06;;;16.96;100.00
22440;BME280;11387;51.612;7.210;2023-07-31T12:16:17;99905.34;;;16.88;100.00
22440;BME280;11387;51.612;7.210;2023-07-31T12:18:49;99900.16;;;17.02;100.00
22440;BME280;11387;51.612;7.210;2023-07-31T12:21:27;99909.34;;;17.41;100.00
22440;BME280;11387;51.612;7.210;2023-07-31T12:23:57;99896.44;;;17.30;100.00
22440;BME280;11387;51.612;7.210;2023-07-31T12:26:34;99904.19;;;17.40;100.00
22440;BME280;11387;51.612;7.210;2023-07-31T12:29:07;99900.91;;;17.34;100.00
22440;BME280;11387;51.612;7.210;2023-07-31T12:31:36;99893.16;;;17.24;100.00
22440;BME280;11387;51.612;7.210;2023-07-31T12:34:15;99906.00;;;17.16;100.00
22440;BME280;11387;51.612;7.210;2023-07-31T12:36:44;99904.91;;;17.02;100.00
22440;BME280;11387;51.612;7.210;2023-07-31T12:39:14;99903.66;;;16.99;100.00
22440;BME280;11387;51.612;7.210;2023-07-31T12:41:43;99894.56;;;16.99;100.00
22440;BME280;11387;51.612;7.210;2023-07-31T12:44:12;99904.63;;;16.91;100.00
22440;BME280;11387;51.612;7.210;2023-07-31T12:46:40;99896.16;;;16.84;100.00
22440;BME280;11387;51.612;7.210;2023-07-31T12:49:10;99901.34;;;16.86;100.00
22440;BME280;11387;51.612;7.210;2023-07-31T12:51:39;99891.53;;;16.88;100.00
22440;BME280;11387;51.612;7.210;2023-07-31T12:54:08;99888.78;;;16.88;100.00
22440;BME280;11387;51.612;7.210;2023-07-31T12:56:39;99894.91;;;16.97;100.00
22440;BME280;11387;51.612;7.210;2023-07-31T12:59:08;99892.88;;;16.94;100.00